sensor_id;sensor_type;location;lat;lon;timestamp;temperature;humidity
21298;DHT22;10808;48.010;11.326;2023-03-20T00:01:55;10.40;99.90
21298;DHT22;10808;48.010;11.326;2023-03-20T00:04:21;10.40;99.90
21298;DHT22;10808;48.010;11.326;2023-03-20T00:06:47;10.30;99.90
21298;DHT22;10808;48.010;11.326;2023-03-20T00:09:27;10.30;99.90
21298;DHT22;10808;48.010;11.326;2023-03-20T00:11:54;10.30;99.90
21298;DHT22;10808;48.010;11.326;2023-03-20T00:14:28;10.30;99.90
21298;DHT22;10808;48.010;11.326;2023-03-20T00:16:54;10.30;99.90
21298;DHT22;10808;48.010;11.326;2023-03-20T00:21:49;10.30;99.90
21298;DHT22;10808;48.010;11.326;2023-03-20T00:24:15;10.30;99.90
21298;DHT22;10808;48.010;11.326;2023-03-20T00:26:43;10.20;99.90
21298;DHT22;10808;48.010;11.326;2023-03-20T00:31:43;10.30;99.90
21298;DHT22;10808;48.010;11.326;2023-03-20T00:34:13;10.20;99.90
21298;DHT22;10808;48.010;11.326;2023-03-20T00:36:40;10.30;99.90
21298;DHT22;10808;48.010;11.326;2023-03-20T00:39:06;10.20;99.90
21298;DHT22;10808;48.010;11.326;2023-03-20T00:44:27;10.20;99.90
21298;DHT22;10808;48.010;11.326;2023-03-20T00:46:53;10.20;99.90
21298;DHT22;10808;48.010;11.326;2023-03-20T00:49:34;10.20;99.90
21298;DHT22;10808;48.010;11.326;2023-03-20T00:52:02;10.20;99.90
21298;DHT22;10808;48.010;11.326;2023-03-20T00:54:41;10.10;99.90
21298;DHT22;10808;48.010;11.326;2023-03-20T00:57:11;10.10;99.90
21298;DHT22;10808;48.010;11.326;2023-03-20T00:59:41;10.10;99.90
21298;DHT22;10808;48.010;11.326;2023-03-20T01:02:11;10.20;99.90
21298;DHT22;10808;48.010;11.326;2023-03-20T01:04:41;10.10;99.90
21298;DHT22;10808;48.010;11.326;2023-03-20T01:07:11;10.20;99.90
21298;DHT22;10808;48.010;11.326;2023-03-20T01:09:38;10.20;99.90
21298;DHT22;10808;48.010;11.326;2023-03-20T01:12:05;10.20;99.90
21298;DHT22;10808;48.010;11.326;2023-03-20T01:14:35;10.20;99.90
21298;DHT22;10808;48.010;11.326;2023-03-20T01:17:01;10.20;99.90
21298;DHT22;10808;48.010;11.326;2023-03-20T01:19:27;10.20;99.90
21298;DHT22;10808;48.010;11.326;2023-03-20T01:21:53;10.20;99.90
21298;DHT22;10808;48.010;11.326;2023-03-20T01:24:20;10.20;99.90
21298;DHT22;10808;48.010;11.326;2023-03-20T01:26:46;10.20;99.90
21298;DHT22;10808;48.010;11.326;2023-03-20T01:29:21;10.20;99.90
21298;DHT22;10808;48.010;11.326;2023-03-20T01:31:54;10.20;99.90
21298;DHT22;10808;48.010;11.326;2023-03-20T01:34:20;10.20;99.90
21298;DHT22;10808;48.010;11.326;2023-03-20T01:36:55;10.30;99.90
21298;DHT22;10808;48.010;11.326;2023-03-20T01:39:29;10.20;99.90
21298;DHT22;10808;48.010;11.326;2023-03-20T01:41:57;10.20;99.90
21298;DHT22;10808;48.010;11.326;2023-03-20T01:44:28;10.20;99.90
21298;DHT22;10808;48.010;11.326;2023-03-20T01:46:54;10.20;99.90
21298;DHT22;10808;48.010;11.326;2023-03-20T01:51:48;10.20;99.90
21298;DHT22;10808;48.010;11.326;2023-03-20T01:54:20;10.20;99.90
21298;DHT22;10808;48.010;11.326;2023-03-20T01:57:14;10.20;99.90
21298;DHT22;10808;48.010;11.326;2023-03-20T01:59:50;10.20;99.90
21298;DHT22;10808;48.010;11.326;2023-03-20T02:02:20;10.20;99.90
21298;DHT22;10808;48.010;11.326;2023-03-20T02:04:54;10.20;99.90
21298;DHT22;10808;48.010;11.326;2023-03-20T02:07:21;10.20;99.90
21298;DHT22;10808;48.010;11.326;2023-03-20T02:09:49;10.20;99.90
21298;DHT22;10808;48.010;11.326;2023-03-20T02:12:16;10.20;99.90
21298;DHT22;10808;48.010;11.326;2023-03-20T02:14:45;10.20;99.90
21298;DHT22;10808;48.010;11.326;2023-03-20T02:17:12;10.20;99.90
21298;DHT22;10808;48.010;11.326;2023-03-20T02:28:38;10.20;99.90
21298;DHT22;10808;48.010;11.326;2023-03-20T02:31:32;10.20;99.90
21298;DHT22;10808;48.010;11.326;2023-03-20T02:42:38;10.20;99.90
21298;DHT22;10808;48.010;11.326;2023-03-20T02:45:27;10.20;99.90
21298;DHT22;10808;48.010;11.326;2023-03-20T02:48:16;10.20;99.90
21298;DHT22;10808;48.010;11.326;2023-03-20T02:53:48;10.20;99.90
21298;DHT22;10808;48.010;11.326;2023-03-20T02:56:31;10.20;99.90
21298;DHT22;10808;48.010;11.326;2023-03-20T02:59:32;10.10;99.90
21298;DHT22;10808;48.010;11.326;2023-03-20T03:02:14;10.10;99.90
21298;DHT22;10808;48.010;11.326;2023-03-20T03:04:55;10.10;99.90
21298;DHT22;10808;48.010;11.326;2023-03-20T03:07:32;10.10;99.90
21298;DHT22;10808;48.010;11.326;2023-03-20T03:10:04;10.10;99.90
21298;DHT22;10808;48.010;11.326;2023-03-20T03:12:35;10.10;99.90
21298;DHT22;10808;48.010;11.326;2023-03-20T03:15:09;10.10;99.90
21298;DHT22;10808;48.010;11.326;2023-03-20T03:17:39;10.10;99.90
21298;DHT22;10808;48.010;11.326;2023-03-20T03:20:21;10.10;99.90
21298;DHT22;10808;48.010;11.326;2023-03-20T03:22:49;10.10;99.90
21298;DHT22;10808;48.010;11.326;2023-03-20T03:25:32;10.10;99.90
21298;DHT22;10808;48.010;11.326;2023-03-20T03:28:04;10.00;99.90
21298;DHT22;10808;48.010;11.326;2023-03-20T03:30:35;10.00;99.90
21298;DHT22;10808;48.010;11.326;2023-03-20T03:35:37;10.10;99.90
21298;DHT22;10808;48.010;11.326;2023-03-20T03:38:25;10.10;99.90
21298;DHT22;10808;48.010;11.326;2023-03-20T03:43:58;10.10;99.90
21298;DHT22;10808;48.010;11.326;2023-03-20T03:46:36;10.10;99.90
21298;DHT22;10808;48.010;11.326;2023-03-20T03:49:04;10.00;99.90
21298;DHT22;10808;48.010;11.326;2023-03-20T03:51:34;10.00;99.90
21298;DHT22;10808;48.010;11.326;2023-03-20T03:54:27;10.00;99.90
21298;DHT22;10808;48.010;11.326;2023-03-20T03:56:56;10.00;99.90
21298;DHT22;10808;48.010;11.326;2023-03-20T03:59:41;10.00;99.90
21298;DHT22;10808;48.010;11.326;2023-03-20T04:02:09;9.90;99.90
21298;DHT22;10808;48.010;11.326;2023-03-20T04:04:43;9.90;99.90
21298;DHT22;10808;48.010;11.326;2023-03-20T04:07:14;9.80;99.90
21298;DHT22;10808;48.010;11.326;2023-03-20T04:09:40;9.70;99.90
21298;DHT22;10808;48.010;11.326;2023-03-20T04:12:37;9.60;99.90
21298;DHT22;10808;48.010;11.326;2023-03-20T04:15:08;9.60;99.90
21298;DHT22;10808;48.010;11.326;2023-03-20T04:17:34;9.60;99.90
21298;DHT22;10808;48.010;11.326;2023-03-20T04:20:00;9.60;99.90
21298;DHT22;10808;48.010;11.326;2023-03-20T04:22:26;9.60;99.90
21298;DHT22;10808;48.010;11.326;2023-03-20T04:24:56;9.40;99.90
21298;DHT22;10808;48.010;11.326;2023-03-20T04:27:23;9.40;99.90
21298;DHT22;10808;48.010;11.326;2023-03-20T04:29:49;9.40;99.90
21298;DHT22;10808;48.010;11.326;2023-03-20T04:32:22;9.40;99.90
21298;DHT22;10808;48.010;11.326;2023-03-20T04:34:48;9.30;99.90
21298;DHT22;10808;48.010;11.326;2023-03-20T04:37:22;9.30;99.90
21298;DHT22;10808;48.010;11.326;2023-03-20T04:39:48;9.20;99.90
21298;DHT22;10808;48.010;11.326;2023-03-20T04:42:14;9.20;99.90
21298;DHT22;10808;48.010;11.326;2023-03-20T04:44:46;9.20;99.90
21298;DHT22;10808;48.010;11.326;2023-03-20T04:47:13;9.10;99.90
21298;DHT22;10808;48.010;11.326;2023-03-20T04:49:42;9.20;99.90
21298;DHT22;10808;48.010;11.326;2023-03-20T04:52:08;9.10;99.90
21298;DHT22;10808;48.010;11.326;2023-03-20T04:54:34;9.10;99.90
21298;DHT22;10808;48.010;11.326;2023-03-20T04:57:00;9.10;99.90
21298;DHT22;10808;48.010;11.326;2023-03-20T04:59:26;9.10;99.90
21298;DHT22;10808;48.010;11.326;2023-03-20T05:01:54;9.00;99.90
21298;DHT22;10808;48.010;11.326;2023-03-20T05:04:22;9.00;99.90
21298;DHT22;10808;48.010;11.326;2023-03-20T05:06:48;9.00;99.90
21298;DHT22;10808;48.010;11.326;2023-03-20T05:09:15;9.00;99.90
21298;DHT22;10808;48.010;11.326;2023-03-20T05:11:42;9.00;99.90
21298;DHT22;10808;48.010;11.326;2023-03-20T05:14:08;9.00;99.90
21298;DHT22;10808;48.010;11.326;2023-03-20T05:16:50;9.10;99.90
21298;DHT22;10808;48.010;11.326;2023-03-20T05:19:29;9.00;99.90
21298;DHT22;10808;48.010;11.326;2023-03-20T05:21:55;9.10;99.90
21298;DHT22;10808;48.010;11.326;2023-03-20T05:24:21;9.10;99.90
21298;DHT22;10808;48.010;11.326;2023-03-20T05:26:49;9.10;99.90
21298;DHT22;10808;48.010;11.326;2023-03-20T05:29:15;9.10;99.90
21298;DHT22;10808;48.010;11.326;2023-03-20T05:31:41;9.20;99.90
21298;DHT22;10808;48.010;11.326;2023-03-20T05:34:07;9.20;99.90
21298;DHT22;10808;48.010;11.326;2023-03-20T05:36:33;9.10;99.90
21298;DHT22;10808;48.010;11.326;2023-03-20T05:38:59;9.20;99.90
21298;DHT22;10808;48.010;11.326;2023-03-20T05:41:29;9.20;99.90
21298;DHT22;10808;48.010;11.326;2023-03-20T05:43:56;9.20;99.90
21298;DHT22;10808;48.010;11.326;2023-03-20T05:46:23;9.10;99.90
21298;DHT22;10808;48.010;11.326;2023-03-20T05:48:49;9.10;99.90
21298;DHT22;10808;48.010;11.326;2023-03-20T05:51:15;9.10;99.90
21298;DHT22;10808;48.010;11.326;2023-03-20T05:53:41;9.20;99.90
21298;DHT22;10808;48.010;11.326;2023-03-20T05:56:07;9.20;99.90
21298;DHT22;10808;48.010;11.326;2023-03-20T05:58:33;9.20;99.90
21298;DHT22;10808;48.010;11.326;2023-03-20T06:01:01;9.10;99.90
21298;DHT22;10808;48.010;11.326;2023-03-20T06:03:33;9.10;99.90
21298;DHT22;10808;48.010;11.326;2023-03-20T06:05:59;9.10;99.90
21298;DHT22;10808;48.010;11.326;2023-03-20T06:08:25;9.10;99.90
21298;DHT22;10808;48.010;11.326;2023-03-20T06:10:52;9.10;99.90
21298;DHT22;10808;48.010;11.326;2023-03-20T06:13:18;9.10;99.90
21298;DHT22;10808;48.010;11.326;2023-03-20T06:15:44;9.00;99.90
21298;DHT22;10808;48.010;11.326;2023-03-20T06:18:10;9.10;99.90
21298;DHT22;10808;48.010;11.326;2023-03-20T06:20:36;9.10;99.90
21298;DHT22;10808;48.010;11.326;2023-03-20T06:23:02;9.20;99.90
21298;DHT22;10808;48.010;11.326;2023-03-20T06:25:28;9.10;99.90
21298;DHT22;10808;48.010;11.326;2023-03-20T06:27:54;9.10;99.90
21298;DHT22;10808;48.010;11.326;2023-03-20T06:30:27;9.10;99.90
21298;DHT22;10808;48.010;11.326;2023-03-20T06:32:53;9.10;99.90
21298;DHT22;10808;48.010;11.326;2023-03-20T06:35:19;9.10;99.90
21298;DHT22;10808;48.010;11.326;2023-03-20T06:37:53;9.20;99.90
21298;DHT22;10808;48.010;11.326;2023-03-20T06:40:19;9.20;99.90
21298;DHT22;10808;48.010;11.326;2023-03-20T06:42:53;9.10;99.90
21298;DHT22;10808;48.010;11.326;2023-03-20T06:45:25;9.20;99.90
21298;DHT22;10808;48.010;11.326;2023-03-20T06:47:51;9.20;99.90
21298;DHT22;10808;48.010;11.326;2023-03-20T06:50:17;9.20;99.90
21298;DHT22;10808;48.010;11.326;2023-03-20T06:52:43;9.30;99.90
21298;DHT22;10808;48.010;11.326;2023-03-20T06:55:15;9.30;99.90
21298;DHT22;10808;48.010;11.326;2023-03-20T06:58:00;9.30;99.90
21298;DHT22;10808;48.010;11.326;2023-03-20T07:00:26;9.40;99.90
21298;DHT22;10808;48.010;11.326;2023-03-20T07:02:55;9.40;99.90
21298;DHT22;10808;48.010;11.326;2023-03-20T07:05:21;9.50;99.90
21298;DHT22;10808;48.010;11.326;2023-03-20T07:07:48;9.50;99.90
21298;DHT22;10808;48.010;11.326;2023-03-20T07:10:14;9.40;99.90
21298;DHT22;10808;48.010;11.326;2023-03-20T07:12:46;9.40;99.90
21298;DHT22;10808;48.010;11.326;2023-03-20T07:15:24;9.40;99.90
21298;DHT22;10808;48.010;11.326;2023-03-20T07:17:50;9.40;99.90
21298;DHT22;10808;48.010;11.326;2023-03-20T07:20:16;9.40;99.90
21298;DHT22;10808;48.010;11.326;2023-03-20T07:22:42;9.50;99.90
21298;DHT22;10808;48.010;11.326;2023-03-20T07:25:36;9.50;99.90
21298;DHT22;10808;48.010;11.326;2023-03-20T07:28:03;9.50;99.90
21298;DHT22;10808;48.010;11.326;2023-03-20T07:30:31;9.50;99.90
21298;DHT22;10808;48.010;11.326;2023-03-20T07:33:06;9.60;99.90
21298;DHT22;10808;48.010;11.326;2023-03-20T07:35:33;9.70;99.90
21298;DHT22;10808;48.010;11.326;2023-03-20T07:41:16;9.70;99.90
21298;DHT22;10808;48.010;11.326;2023-03-20T07:44:08;9.70;99.90
21298;DHT22;10808;48.010;11.326;2023-03-20T07:46:41;9.70;99.90
21298;DHT22;10808;48.010;11.326;2023-03-20T07:49:18;9.70;99.90
21298;DHT22;10808;48.010;11.326;2023-03-20T07:52:07;9.70;99.90
21298;DHT22;10808;48.010;11.326;2023-03-20T07:54:39;9.80;99.90
21298;DHT22;10808;48.010;11.326;2023-03-20T07:57:29;9.90;99.90
21298;DHT22;10808;48.010;11.326;2023-03-20T08:00:03;9.90;99.90
21298;DHT22;10808;48.010;11.326;2023-03-20T08:02:33;10.10;99.90
21298;DHT22;10808;48.010;11.326;2023-03-20T08:04:59;10.10;99.90
21298;DHT22;10808;48.010;11.326;2023-03-20T08:07:25;10.10;99.90
21298;DHT22;10808;48.010;11.326;2023-03-20T08:09:54;10.10;99.90
21298;DHT22;10808;48.010;11.326;2023-03-20T08:12:29;10.20;99.90
21298;DHT22;10808;48.010;11.326;2023-03-20T08:14:57;10.30;99.90
21298;DHT22;10808;48.010;11.326;2023-03-20T08:17:23;10.30;99.90
21298;DHT22;10808;48.010;11.326;2023-03-20T08:19:49;10.40;99.90
21298;DHT22;10808;48.010;11.326;2023-03-20T08:22:15;10.50;99.90
21298;DHT22;10808;48.010;11.326;2023-03-20T08:24:41;10.50;99.90
21298;DHT22;10808;48.010;11.326;2023-03-20T08:27:13;10.60;99.90
21298;DHT22;10808;48.010;11.326;2023-03-20T08:29:55;10.80;99.90
21298;DHT22;10808;48.010;11.326;2023-03-20T08:32:23;10.90;99.90
21298;DHT22;10808;48.010;11.326;2023-03-20T08:34:51;11.10;99.90
21298;DHT22;10808;48.010;11.326;2023-03-20T08:37:20;11.30;99.90
21298;DHT22;10808;48.010;11.326;2023-03-20T08:39:46;11.50;99.90
21298;DHT22;10808;48.010;11.326;2023-03-20T08:42:14;11.60;99.90
21298;DHT22;10808;48.010;11.326;2023-03-20T08:44:53;11.60;99.90
21298;DHT22;10808;48.010;11.326;2023-03-20T08:47:19;11.80;99.90
21298;DHT22;10808;48.010;11.326;2023-03-20T08:50:07;12.00;99.90
21298;DHT22;10808;48.010;11.326;2023-03-20T08:52:34;12.10;99.90
21298;DHT22;10808;48.010;11.326;2023-03-20T08:55:12;12.20;99.90
21298;DHT22;10808;48.010;11.326;2023-03-20T08:57:42;12.20;99.90
21298;DHT22;10808;48.010;11.326;2023-03-20T09:00:12;12.20;99.90
21298;DHT22;10808;48.010;11.326;2023-03-20T09:02:41;12.20;99.90
21298;DHT22;10808;48.010;11.326;2023-03-20T09:05:08;12.30;99.90
21298;DHT22;10808;48.010;11.326;2023-03-20T09:07:40;12.40;99.90
21298;DHT22;10808;48.010;11.326;2023-03-20T09:10:08;12.60;99.90
21298;DHT22;10808;48.010;11.326;2023-03-20T09:12:35;12.70;99.90
21298;DHT22;10808;48.010;11.326;2023-03-20T09:15:01;12.80;99.90
21298;DHT22;10808;48.010;11.326;2023-03-20T09:17:33;12.70;99.90
21298;DHT22;10808;48.010;11.326;2023-03-20T09:20:01;12.60;99.90
21298;DHT22;10808;48.010;11.326;2023-03-20T09:22:27;12.60;99.90
21298;DHT22;10808;48.010;11.326;2023-03-20T09:24:57;12.50;99.90
21298;DHT22;10808;48.010;11.326;2023-03-20T09:27:23;12.50;99.90
21298;DHT22;10808;48.010;11.326;2023-03-20T09:29:50;12.50;99.90
21298;DHT22;10808;48.010;11.326;2023-03-20T09:32:18;12.50;99.90
21298;DHT22;10808;48.010;11.326;2023-03-20T09:34:45;12.60;99.90
21298;DHT22;10808;48.010;11.326;2023-03-20T09:37:12;12.70;99.90
21298;DHT22;10808;48.010;11.326;2023-03-20T09:39:38;12.80;99.90
21298;DHT22;10808;48.010;11.326;2023-03-20T09:52:34;13.20;99.90
21298;DHT22;10808;48.010;11.326;2023-03-20T09:55:22;13.00;99.90
21298;DHT22;10808;48.010;11.326;2023-03-20T09:57:52;13.00;99.90
21298;DHT22;10808;48.010;11.326;2023-03-20T10:00:20;13.00;99.90
21298;DHT22;10808;48.010;11.326;2023-03-20T10:02:53;13.00;99.90
21298;DHT22;10808;48.010;11.326;2023-03-20T10:05:29;13.00;99.90
21298;DHT22;10808;48.010;11.326;2023-03-20T10:08:01;13.10;99.90
21298;DHT22;10808;48.010;11.326;2023-03-20T10:19:17;13.80;99.90
21298;DHT22;10808;48.010;11.326;2023-03-20T10:25:06;14.10;99.90
21298;DHT22;10808;48.010;11.326;2023-03-20T10:27:43;14.10;99.90
21298;DHT22;10808;48.010;11.326;2023-03-20T10:36:11;14.10;99.90
21298;DHT22;10808;48.010;11.326;2023-03-20T10:41:20;13.90;99.90
21298;DHT22;10808;48.010;11.326;2023-03-20T10:43:50;13.90;99.90
21298;DHT22;10808;48.010;11.326;2023-03-20T10:46:30;14.00;99.90
21298;DHT22;10808;48.010;11.326;2023-03-20T10:49:01;14.00;99.90
21298;DHT22;10808;48.010;11.326;2023-03-20T10:51:37;14.20;99.90
21298;DHT22;10808;48.010;11.326;2023-03-20T10:54:29;14.50;99.90
21298;DHT22;10808;48.010;11.326;2023-03-20T10:56:58;14.70;99.90
21298;DHT22;10808;48.010;11.326;2023-03-20T10:59:44;14.70;99.60
21298;DHT22;10808;48.010;11.326;2023-03-20T11:02:14;14.70;99.70
21298;DHT22;10808;48.010;11.326;2023-03-20T11:04:41;14.70;99.90
21298;DHT22;10808;48.010;11.326;2023-03-20T11:07:26;14.90;99.90
21298;DHT22;10808;48.010;11.326;2023-03-20T11:10:13;15.10;99.90
21298;DHT22;10808;48.010;11.326;2023-03-20T11:12:48;15.40;98.30
21298;DHT22;10808;48.010;11.326;2023-03-20T11:15:39;15.30;98.10
21298;DHT22;10808;48.010;11.326;2023-03-20T11:18:08;15.30;98.30
21298;DHT22;10808;48.010;11.326;2023-03-20T11:20:51;15.30;98.10
21298;DHT22;10808;48.010;11.326;2023-03-20T11:23:22;15.20;98.40
21298;DHT22;10808;48.010;11.326;2023-03-20T11:25:58;15.20;98.30
21298;DHT22;10808;48.010;11.326;2023-03-20T11:29:04;15.00;98.30
21298;DHT22;10808;48.010;11.326;2023-03-20T11:31:35;15.00;98.50
21298;DHT22;10808;48.010;11.326;2023-03-20T11:37:06;14.90;98.60
21298;DHT22;10808;48.010;11.326;2023-03-20T11:43:11;15.10;98.10
21298;DHT22;10808;48.010;11.326;2023-03-20T11:45:47;15.20;98.00
21298;DHT22;10808;48.010;11.326;2023-03-20T11:48:46;15.10;97.50
21298;DHT22;10808;48.010;11.326;2023-03-20T11:51:24;15.20;97.20
21298;DHT22;10808;48.010;11.326;2023-03-20T11:54:04;15.20;97.50
21298;DHT22;10808;48.010;11.326;2023-03-20T11:56:51;15.00;97.10
21298;DHT22;10808;48.010;11.326;2023-03-20T11:59:18;15.00;97.20
21298;DHT22;10808;48.010;11.326;2023-03-20T12:01:50;14.90;97.60
21298;DHT22;10808;48.010;11.326;2023-03-20T12:04:38;15.00;97.60
21298;DHT22;10808;48.010;11.326;2023-03-20T12:07:31;14.90;97.40
21298;DHT22;10808;48.010;11.326;2023-03-20T12:10:13;14.70;97.30
21298;DHT22;10808;48.010;11.326;2023-03-20T12:12:52;14.70;97.10
21298;DHT22;10808;48.010;11.326;2023-03-20T12:15:35;14.50;97.10
21298;DHT22;10808;48.010;11.326;2023-03-20T12:24:03;14.30;98.00
21298;DHT22;10808;48.010;11.326;2023-03-20T12:26:53;14.30;98.40
21298;DHT22;10808;48.010;11.326;2023-03-20T12:29:46;14.30;98.50
21298;DHT22;10808;48.010;11.326;2023-03-20T12:32:27;14.30;98.50
21298;DHT22;10808;48.010;11.326;2023-03-20T12:35:01;14.20;98.80
21298;DHT22;10808;48.010;11.326;2023-03-20T12:37:27;14.20;98.90
21298;DHT22;10808;48.010;11.326;2023-03-20T12:39:59;14.20;98.50
21298;DHT22;10808;48.010;11.326;2023-03-20T12:42:47;14.20;98.60
21298;DHT22;10808;48.010;11.326;2023-03-20T12:45:21;14.20;98.70
21298;DHT22;10808;48.010;11.326;2023-03-20T12:48:18;14.40;98.80
21298;DHT22;10808;48.010;11.326;2023-03-20T12:50:52;14.40;98.80
21298;DHT22;10808;48.010;11.326;2023-03-20T13:06:50;15.30;97.60
21298;DHT22;10808;48.010;11.326;2023-03-20T13:12:15;15.30;97.40
21298;DHT22;10808;48.010;11.326;2023-03-20T13:20:50;15.20;97.50
21298;DHT22;10808;48.010;11.326;2023-03-20T13:23:24;15.20;97.10
21298;DHT22;10808;48.010;11.326;2023-03-20T13:26:11;15.30;97.40
21298;DHT22;10808;48.010;11.326;2023-03-20T13:37:26;15.90;96.80
21298;DHT22;10808;48.010;11.326;2023-03-20T13:45:37;16.40;96.10
21298;DHT22;10808;48.010;11.326;2023-03-20T13:51:32;16.30;95.90
21298;DHT22;10808;48.010;11.326;2023-03-20T13:59:42;15.90;95.70
21298;DHT22;10808;48.010;11.326;2023-03-20T14:05:11;16.40;95.30
21298;DHT22;10808;48.010;11.326;2023-03-20T14:07:42;16.40;95.00
21298;DHT22;10808;48.010;11.326;2023-03-20T14:13:11;16.80;94.80
21298;DHT22;10808;48.010;11.326;2023-03-20T14:15:43;17.10;94.40
21298;DHT22;10808;48.010;11.326;2023-03-20T14:18:16;17.40;94.20
21298;DHT22;10808;48.010;11.326;2023-03-20T14:20:55;17.70;93.90
21298;DHT22;10808;48.010;11.326;2023-03-20T14:23:33;17.60;93.30
21298;DHT22;10808;48.010;11.326;2023-03-20T14:26:05;17.40;93.40
21298;DHT22;10808;48.010;11.326;2023-03-20T14:28:45;17.70;93.40
21298;DHT22;10808;48.010;11.326;2023-03-20T14:31:31;17.70;92.80
21298;DHT22;10808;48.010;11.326;2023-03-20T14:34:17;17.50;92.80
21298;DHT22;10808;48.010;11.326;2023-03-20T14:38:06;17.30;93.00
21298;DHT22;10808;48.010;11.326;2023-03-20T14:40:13;17.00;93.00
21298;DHT22;10808;48.010;11.326;2023-03-20T14:42:58;16.70;93.20
21298;DHT22;10808;48.010;11.326;2023-03-20T14:45:41;16.40;93.70
21298;DHT22;10808;48.010;11.326;2023-03-20T14:50:58;16.00;94.10
21298;DHT22;10808;48.010;11.326;2023-03-20T14:53:26;16.10;94.80
21298;DHT22;10808;48.010;11.326;2023-03-20T14:58:59;16.00;94.50
21298;DHT22;10808;48.010;11.326;2023-03-20T15:04:36;15.80;94.30
21298;DHT22;10808;48.010;11.326;2023-03-20T15:07:24;15.70;94.00
21298;DHT22;10808;48.010;11.326;2023-03-20T15:09:54;15.70;94.70
21298;DHT22;10808;48.010;11.326;2023-03-20T15:12:33;15.60;94.40
21298;DHT22;10808;48.010;11.326;2023-03-20T15:15:04;15.40;94.50
21298;DHT22;10808;48.010;11.326;2023-03-20T15:17:39;15.40;94.60
21298;DHT22;10808;48.010;11.326;2023-03-20T15:20:14;15.40;94.90
21298;DHT22;10808;48.010;11.326;2023-03-20T15:22:54;15.20;95.10
21298;DHT22;10808;48.010;11.326;2023-03-20T15:25:42;15.10;95.10
21298;DHT22;10808;48.010;11.326;2023-03-20T15:28:25;15.00;95.90
21298;DHT22;10808;48.010;11.326;2023-03-20T15:30:56;14.90;96.00
21298;DHT22;10808;48.010;11.326;2023-03-20T15:33:34;14.90;95.80
21298;DHT22;10808;48.010;11.326;2023-03-20T15:36:33;14.80;95.60
21298;DHT22;10808;48.010;11.326;2023-03-20T15:39:14;14.70;95.60
21298;DHT22;10808;48.010;11.326;2023-03-20T15:41:49;14.60;95.60
21298;DHT22;10808;48.010;11.326;2023-03-20T15:44:41;14.70;96.10
21298;DHT22;10808;48.010;11.326;2023-03-20T15:47:18;14.70;95.90
21298;DHT22;10808;48.010;11.326;2023-03-20T15:49:53;14.70;96.10
21298;DHT22;10808;48.010;11.326;2023-03-20T15:52:42;14.70;96.00
21298;DHT22;10808;48.010;11.326;2023-03-20T15:55:29;14.60;95.70
21298;DHT22;10808;48.010;11.326;2023-03-20T15:57:57;14.50;95.70
21298;DHT22;10808;48.010;11.326;2023-03-20T16:00:41;14.50;96.00
21298;DHT22;10808;48.010;11.326;2023-03-20T16:03:39;14.60;96.40
21298;DHT22;10808;48.010;11.326;2023-03-20T16:06:08;14.50;95.90
21298;DHT22;10808;48.010;11.326;2023-03-20T16:08:41;14.50;95.90
21298;DHT22;10808;48.010;11.326;2023-03-20T16:11:13;14.40;95.90
21298;DHT22;10808;48.010;11.326;2023-03-20T16:13:45;14.40;96.10
21298;DHT22;10808;48.010;11.326;2023-03-20T16:16:15;14.50;96.60
21298;DHT22;10808;48.010;11.326;2023-03-20T16:18:51;14.50;96.00
21298;DHT22;10808;48.010;11.326;2023-03-20T16:21:39;14.50;95.80
21298;DHT22;10808;48.010;11.326;2023-03-20T16:24:26;14.40;95.70
21298;DHT22;10808;48.010;11.326;2023-03-20T16:26:59;14.40;95.90
21298;DHT22;10808;48.010;11.326;2023-03-20T16:29:42;14.50;96.00
21298;DHT22;10808;48.010;11.326;2023-03-20T16:32:26;14.40;95.80
21298;DHT22;10808;48.010;11.326;2023-03-20T16:35:29;14.30;95.50
21298;DHT22;10808;48.010;11.326;2023-03-20T16:37:58;14.30;95.90
21298;DHT22;10808;48.010;11.326;2023-03-20T16:40:31;14.20;96.10
21298;DHT22;10808;48.010;11.326;2023-03-20T16:43:11;14.30;96.30
21298;DHT22;10808;48.010;11.326;2023-03-20T16:52:11;14.30;96.30
21298;DHT22;10808;48.010;11.326;2023-03-20T16:54:38;14.30;96.00
21298;DHT22;10808;48.010;11.326;2023-03-20T16:57:08;14.10;96.30
21298;DHT22;10808;48.010;11.326;2023-03-20T16:59:38;14.00;96.60
21298;DHT22;10808;48.010;11.326;2023-03-20T17:02:24;13.90;96.70
21298;DHT22;10808;48.010;11.326;2023-03-20T17:05:00;13.80;96.60
21298;DHT22;10808;48.010;11.326;2023-03-20T17:07:27;13.70;96.70
21298;DHT22;10808;48.010;11.326;2023-03-20T17:10:21;13.60;96.80
21298;DHT22;10808;48.010;11.326;2023-03-20T17:12:52;13.50;97.00
21298;DHT22;10808;48.010;11.326;2023-03-20T17:15:23;13.40;96.90
21298;DHT22;10808;48.010;11.326;2023-03-20T17:18:12;13.40;97.10
21298;DHT22;10808;48.010;11.326;2023-03-20T17:20:38;13.40;97.40
21298;DHT22;10808;48.010;11.326;2023-03-20T17:23:19;13.40;97.70
21298;DHT22;10808;48.010;11.326;2023-03-20T17:25:45;13.30;97.90
21298;DHT22;10808;48.010;11.326;2023-03-20T17:28:23;13.30;97.90
21298;DHT22;10808;48.010;11.326;2023-03-20T17:30:52;13.20;98.00
21298;DHT22;10808;48.010;11.326;2023-03-20T17:33:20;13.10;98.20
21298;DHT22;10808;48.010;11.326;2023-03-20T17:35:47;13.00;98.50
21298;DHT22;10808;48.010;11.326;2023-03-20T17:38:21;13.00;98.40
21298;DHT22;10808;48.010;11.326;2023-03-20T17:40:48;12.90;98.40
21298;DHT22;10808;48.010;11.326;2023-03-20T17:43:16;12.90;98.70
21298;DHT22;10808;48.010;11.326;2023-03-20T17:45:44;12.70;98.80
21298;DHT22;10808;48.010;11.326;2023-03-20T17:48:14;12.70;98.80
21298;DHT22;10808;48.010;11.326;2023-03-20T17:50:48;12.60;99.20
21298;DHT22;10808;48.010;11.326;2023-03-20T17:53:19;12.50;99.20
21298;DHT22;10808;48.010;11.326;2023-03-20T17:55:55;12.50;99.50
21298;DHT22;10808;48.010;11.326;2023-03-20T17:58:22;12.40;99.60
21298;DHT22;10808;48.010;11.326;2023-03-20T18:00:50;12.30;99.70
21298;DHT22;10808;48.010;11.326;2023-03-20T18:03:18;12.20;99.90
21298;DHT22;10808;48.010;11.326;2023-03-20T18:05:48;12.10;99.90
21298;DHT22;10808;48.010;11.326;2023-03-20T18:08:21;12.00;99.90
21298;DHT22;10808;48.010;11.326;2023-03-20T18:10:49;12.00;99.90
21298;DHT22;10808;48.010;11.326;2023-03-20T18:13:18;11.90;99.90
21298;DHT22;10808;48.010;11.326;2023-03-20T18:15:48;11.80;99.90
21298;DHT22;10808;48.010;11.326;2023-03-20T18:18:18;11.80;99.90
21298;DHT22;10808;48.010;11.326;2023-03-20T18:21:02;11.80;99.90
21298;DHT22;10808;48.010;11.326;2023-03-20T18:23:28;11.80;99.90
21298;DHT22;10808;48.010;11.326;2023-03-20T18:25:55;11.70;99.90
21298;DHT22;10808;48.010;11.326;2023-03-20T18:28:21;11.70;99.90